sensor_id;sensor_type;location;lat;lon;timestamp;pressure;altitude;pressure_sealevel;temperature;humidity
43115;BME280;28727;50.068;14.452;2023-05-08T00:00:23;100062.81;;;7.76;65.35
43115;BME280;28727;50.068;14.452;2023-05-08T00:02:55;100063.22;;;7.71;64.73
43115;BME280;28727;50.068;14.452;2023-05-08T00:05:27;100064.28;;;7.69;65.55
43115;BME280;28727;50.068;14.452;2023-05-08T00:07:59;100060.56;;;7.71;65.11
43115;BME280;28727;50.068;14.452;2023-05-08T00:10:33;100055.31;;;7.71;64.95
43115;BME280;28727;50.068;14.452;2023-05-08T00:13:05;100061.91;;;7.66;65.57
43115;BME280;28727;50.068;14.452;2023-05-08T00:15:37;100053.88;;;7.58;65.69
43115;BME280;28727;50.068;14.452;2023-05-08T00:18:09;100053.16;;;7.56;66.23
43115;BME280;28727;50.068;14.452;2023-05-08T00:20:41;100056.38;;;7.59;65.47
43115;BME280;28727;50.068;14.452;2023-05-08T00:23:13;100050.09;;;7.51;65.83
43115;BME280;28727;50.068;14.452;2023-05-08T00:25:44;100054.09;;;7.45;65.78
43115;BME280;28727;50.068;14.452;2023-05-08T00:28:16;100052.31;;;7.46;65.81
43115;BME280;28727;50.068;14.452;2023-05-08T00:30:48;100053.53;;;7.42;65.76
43115;BME280;28727;50.068;14.452;2023-05-08T00:33:20;100056.16;;;7.42;65.97
43115;BME280;28727;50.068;14.452;2023-05-08T00:36:03;100061.78;;;7.37;66.54
43115;BME280;28727;50.068;14.452;2023-05-08T00:38:35;100071.09;;;7.41;66.76
43115;BME280;28727;50.068;14.452;2023-05-08T00:41:07;100068.31;;;7.43;66.28
43115;BME280;28727;50.068;14.452;2023-05-08T00:43:39;100066.69;;;7.42;66.62
43115;BME280;28727;50.068;14.452;2023-05-08T00:46:11;100065.00;;;7.40;66.37
43115;BME280;28727;50.068;14.452;2023-05-08T00:48:44;100072.56;;;7.34;66.96
43115;BME280;28727;50.068;14.452;2023-05-08T00:51:16;100069.34;;;7.30;66.71
43115;BME280;28727;50.068;14.452;2023-05-08T00:53:49;100070.59;;;7.26;67.31
43115;BME280;28727;50.068;14.452;2023-05-08T00:56:24;100075.41;;;7.21;67.58
43115;BME280;28727;50.068;14.452;2023-05-08T00:58:56;100071.09;;;7.20;66.97
43115;BME280;28727;50.068;14.452;2023-05-08T01:01:28;100070.16;;;7.21;66.87
43115;BME280;28727;50.068;14.452;2023-05-08T01:04:00;100076.63;;;7.17;66.94
43115;BME280;28727;50.068;14.452;2023-05-08T01:06:32;100072.34;;;7.16;67.09
43115;BME280;28727;50.068;14.452;2023-05-08T01:09:10;100071.22;;;7.19;67.16
43115;BME280;28727;50.068;14.452;2023-05-08T01:14:39;100081.44;;;7.12;67.15
43115;BME280;28727;50.068;14.452;2023-05-08T01:17:27;100076.31;;;7.11;67.86
43115;BME280;28727;50.068;14.452;2023-05-08T01:26:10;100083.88;;;7.04;67.91
43115;BME280;28727;50.068;14.452;2023-05-08T01:32:25;100083.31;;;7.01;68.01
43115;BME280;28727;50.068;14.452;2023-05-08T01:38:14;100092.22;;;6.88;68.12
43115;BME280;28727;50.068;14.452;2023-05-08T01:46:26;100092.13;;;6.79;68.27
43115;BME280;28727;50.068;14.452;2023-05-08T01:49:09;100096.69;;;6.77;68.64
43115;BME280;28727;50.068;14.452;2023-05-08T01:51:48;100097.63;;;6.76;68.38
43115;BME280;28727;50.068;14.452;2023-05-08T01:54:27;100100.38;;;6.74;69.05
43115;BME280;28727;50.068;14.452;2023-05-08T01:57:02;100093.44;;;6.73;68.80
43115;BME280;28727;50.068;14.452;2023-05-08T01:59:35;100091.94;;;6.71;68.88
43115;BME280;28727;50.068;14.452;2023-05-08T02:02:09;100087.75;;;6.68;69.08
43115;BME280;28727;50.068;14.452;2023-05-08T02:04:43;100082.38;;;6.70;69.01
43115;BME280;28727;50.068;14.452;2023-05-08T02:07:15;100091.94;;;6.71;69.25
43115;BME280;28727;50.068;14.452;2023-05-08T02:09:50;100087.38;;;6.73;68.99
43115;BME280;28727;50.068;14.452;2023-05-08T02:12:24;100090.72;;;6.75;68.98
43115;BME280;28727;50.068;14.452;2023-05-08T02:14:58;100100.75;;;6.70;68.81
43115;BME280;28727;50.068;14.452;2023-05-08T02:17:32;100096.47;;;6.69;68.96
43115;BME280;28727;50.068;14.452;2023-05-08T02:20:08;100096.84;;;6.64;69.17
43115;BME280;28727;50.068;14.452;2023-05-08T02:22:49;100084.91;;;6.60;69.10
43115;BME280;28727;50.068;14.452;2023-05-08T02:25:21;100088.19;;;6.52;68.90
43115;BME280;28727;50.068;14.452;2023-05-08T02:27:54;100095.44;;;6.49;69.72
43115;BME280;28727;50.068;14.452;2023-05-08T02:30:27;100094.63;;;6.48;69.64
43115;BME280;28727;50.068;14.452;2023-05-08T02:33:00;100093.19;;;6.44;69.61
43115;BME280;28727;50.068;14.452;2023-05-08T02:35:34;100100.97;;;6.46;69.64
43115;BME280;28727;50.068;14.452;2023-05-08T02:38:08;100100.59;;;6.50;69.96
43115;BME280;28727;50.068;14.452;2023-05-08T02:40:46;100098.53;;;6.54;69.66
43115;BME280;28727;50.068;14.452;2023-05-08T02:43:23;100094.38;;;6.51;69.48
43115;BME280;28727;50.068;14.452;2023-05-08T02:49:07;100104.06;;;6.40;70.17
43115;BME280;28727;50.068;14.452;2023-05-08T02:52:17;100105.16;;;6.37;70.29
43115;BME280;28727;50.068;14.452;2023-05-08T02:55:00;100115.19;;;6.32;70.83
43115;BME280;28727;50.068;14.452;2023-05-08T02:57:55;100117.13;;;6.30;70.26
43115;BME280;28727;50.068;14.452;2023-05-08T03:00:32;100112.34;;;6.24;70.87
43115;BME280;28727;50.068;14.452;2023-05-08T03:03:26;100118.56;;;6.23;71.28
43115;BME280;28727;50.068;14.452;2023-05-08T03:06:02;100115.94;;;6.23;70.92
43115;BME280;28727;50.068;14.452;2023-05-08T03:08:39;100126.28;;;6.25;71.08
43115;BME280;28727;50.068;14.452;2023-05-08T03:11:14;100126.28;;;6.25;70.73
43115;BME280;28727;50.068;14.452;2023-05-08T03:13:50;100120.22;;;6.24;70.75
43115;BME280;28727;50.068;14.452;2023-05-08T03:16:30;100120.22;;;6.24;70.96
43115;BME280;28727;50.068;14.452;2023-05-08T03:19:06;100117.81;;;6.21;70.91
43115;BME280;28727;50.068;14.452;2023-05-08T03:21:44;100120.34;;;6.23;70.67
43115;BME280;28727;50.068;14.452;2023-05-08T03:24:18;100117.59;;;6.24;70.82
43115;BME280;28727;50.068;14.452;2023-05-08T03:26:51;100118.78;;;6.20;70.90
43115;BME280;28727;50.068;14.452;2023-05-08T03:29:23;100121.41;;;6.20;70.95
43115;BME280;28727;50.068;14.452;2023-05-08T03:31:57;100131.22;;;6.18;70.67
43115;BME280;28727;50.068;14.452;2023-05-08T03:34:31;100117.38;;;6.16;71.12
43115;BME280;28727;50.068;14.452;2023-05-08T03:37:04;100121.78;;;6.15;70.64
43115;BME280;28727;50.068;14.452;2023-05-08T03:39:36;100124.66;;;6.12;70.55
43115;BME280;28727;50.068;14.452;2023-05-08T03:42:08;100130.84;;;6.11;70.92
43115;BME280;28727;50.068;14.452;2023-05-08T03:44:41;100135.16;;;6.12;70.70
43115;BME280;28727;50.068;14.452;2023-05-08T03:47:13;100130.84;;;6.11;70.72
43115;BME280;28727;50.068;14.452;2023-05-08T03:49:47;100135.00;;;6.14;70.72
43115;BME280;28727;50.068;14.452;2023-05-08T03:52:20;100138.34;;;6.16;70.78
43115;BME280;28727;50.068;14.452;2023-05-08T03:54:53;100133.09;;;6.16;70.59
43115;BME280;28727;50.068;14.452;2023-05-08T03:57:26;100143.59;;;6.16;70.17
43115;BME280;28727;50.068;14.452;2023-05-08T04:00:42;100139.31;;;6.15;70.57
43115;BME280;28727;50.068;14.452;2023-05-08T04:03:55;100143.59;;;6.16;70.45
43115;BME280;28727;50.068;14.452;2023-05-08T04:06:52;100136.19;;;6.21;70.52
43115;BME280;28727;50.068;14.452;2023-05-08T04:09:39;100134.97;;;6.25;70.14
43115;BME280;28727;50.068;14.452;2023-05-08T04:15:21;100147.25;;;6.25;70.44
43115;BME280;28727;50.068;14.452;2023-05-08T04:17:58;100153.00;;;6.30;69.70
43115;BME280;28727;50.068;14.452;2023-05-08T04:20:32;100146.09;;;6.29;70.17
43115;BME280;28727;50.068;14.452;2023-05-08T04:23:05;100154.41;;;6.34;69.77
43115;BME280;28727;50.068;14.452;2023-05-08T04:25:39;100154.78;;;6.40;69.43
43115;BME280;28727;50.068;14.452;2023-05-08T04:28:13;100152.22;;;6.50;69.42
43115;BME280;28727;50.068;14.452;2023-05-08T04:30:46;100155.19;;;6.56;68.98
43115;BME280;28727;50.068;14.452;2023-05-08T04:33:19;100155.53;;;6.63;68.44
43115;BME280;28727;50.068;14.452;2023-05-08T04:35:51;100156.25;;;6.65;68.60
43115;BME280;28727;50.068;14.452;2023-05-08T04:38:24;100159.91;;;6.74;68.26
43115;BME280;28727;50.068;14.452;2023-05-08T04:40:56;100166.22;;;6.82;68.55
43115;BME280;28727;50.068;14.452;2023-05-08T04:43:28;100164.84;;;6.99;68.09
43115;BME280;28727;50.068;14.452;2023-05-08T04:46:00;100162.66;;;7.04;67.32
43115;BME280;28727;50.068;14.452;2023-05-08T04:48:32;100165.97;;;7.17;67.42
43115;BME280;28727;50.068;14.452;2023-05-08T04:51:04;100167.94;;;7.25;66.78
43115;BME280;28727;50.068;14.452;2023-05-08T04:53:36;100173.84;;;7.38;66.14
43115;BME280;28727;50.068;14.452;2023-05-08T04:56:10;100176.06;;;7.43;64.88
43115;BME280;28727;50.068;14.452;2023-05-08T04:58:42;100176.16;;;7.52;64.55
43115;BME280;28727;50.068;14.452;2023-05-08T05:01:17;100179.47;;;7.54;64.24
43115;BME280;28727;50.068;14.452;2023-05-08T05:03:48;100183.00;;;7.64;64.27
43115;BME280;28727;50.068;14.452;2023-05-08T05:06:23;100174.81;;;7.58;64.41
43115;BME280;28727;50.068;14.452;2023-05-08T05:08:55;100186.59;;;7.63;63.61
43115;BME280;28727;50.068;14.452;2023-05-08T05:11:27;100187.16;;;7.67;63.56
43115;BME280;28727;50.068;14.452;2023-05-08T05:13:59;100183.66;;;7.77;63.22
43115;BME280;28727;50.068;14.452;2023-05-08T05:16:31;100185.59;;;7.85;63.66
43115;BME280;28727;50.068;14.452;2023-05-08T05:19:05;100188.97;;;7.97;61.81
43115;BME280;28727;50.068;14.452;2023-05-08T05:21:38;100188.75;;;8.00;61.92
43115;BME280;28727;50.068;14.452;2023-05-08T05:24:11;100183.25;;;8.12;61.86
43115;BME280;28727;50.068;14.452;2023-05-08T05:26:42;100184.53;;;8.28;61.49
43115;BME280;28727;50.068;14.452;2023-05-08T05:29:14;100188.66;;;8.41;60.70
43115;BME280;28727;50.068;14.452;2023-05-08T05:31:46;100196.16;;;8.55;59.98
43115;BME280;28727;50.068;14.452;2023-05-08T05:34:18;100195.72;;;8.60;60.25
43115;BME280;28727;50.068;14.452;2023-05-08T05:36:51;100192.31;;;8.69;59.46
43115;BME280;28727;50.068;14.452;2023-05-08T05:39:22;100198.13;;;8.73;59.28
43115;BME280;28727;50.068;14.452;2023-05-08T05:41:54;100186.91;;;8.71;59.71
43115;BME280;28727;50.068;14.452;2023-05-08T05:44:27;100191.47;;;8.78;59.52
43115;BME280;28727;50.068;14.452;2023-05-08T05:46:59;100192.06;;;8.82;59.35
43115;BME280;28727;50.068;14.452;2023-05-08T05:49:31;100186.50;;;8.75;59.20
43115;BME280;28727;50.068;14.452;2023-05-08T05:52:03;100192.06;;;9.01;59.28
43115;BME280;28727;50.068;14.452;2023-05-08T05:54:35;100193.03;;;9.19;58.72
43115;BME280;28727;50.068;14.452;2023-05-08T05:57:07;100186.91;;;9.38;58.68
43115;BME280;28727;50.068;14.452;2023-05-08T05:59:39;100183.97;;;9.60;58.14
43115;BME280;28727;50.068;14.452;2023-05-08T06:02:12;100195.00;;;9.93;56.93
43115;BME280;28727;50.068;14.452;2023-05-08T06:04:52;100192.81;;;10.15;56.52
43115;BME280;28727;50.068;14.452;2023-05-08T06:07:24;100191.56;;;10.29;55.87
43115;BME280;28727;50.068;14.452;2023-05-08T06:09:56;100189.63;;;10.49;56.01
43115;BME280;28727;50.068;14.452;2023-05-08T06:12:28;100193.97;;;10.67;55.38
43115;BME280;28727;50.068;14.452;2023-05-08T06:15:00;100190.53;;;11.02;54.34
43115;BME280;28727;50.068;14.452;2023-05-08T06:17:33;100186.06;;;11.21;53.51
43115;BME280;28727;50.068;14.452;2023-05-08T06:20:08;100185.44;;;11.44;53.52
43115;BME280;28727;50.068;14.452;2023-05-08T06:22:40;100184.28;;;11.65;52.87
43115;BME280;28727;50.068;14.452;2023-05-08T06:25:13;100184.78;;;11.86;52.06
43115;BME280;28727;50.068;14.452;2023-05-08T06:27:45;100183.50;;;11.98;51.80
43115;BME280;28727;50.068;14.452;2023-05-08T06:30:16;100189.91;;;12.21;53.03
43115;BME280;28727;50.068;14.452;2023-05-08T06:32:48;100178.72;;;12.94;57.26
43115;BME280;28727;50.068;14.452;2023-05-08T06:35:20;100170.31;;;13.15;53.35
43115;BME280;28727;50.068;14.452;2023-05-08T06:37:52;100185.44;;;13.55;50.94
43115;BME280;28727;50.068;14.452;2023-05-08T06:40:25;100179.88;;;13.88;50.43
43115;BME280;28727;50.068;14.452;2023-05-08T06:42:57;100186.47;;;14.09;49.08
43115;BME280;28727;50.068;14.452;2023-05-08T06:45:28;100176.97;;;14.22;49.26
43115;BME280;28727;50.068;14.452;2023-05-08T06:48:00;100182.22;;;14.78;49.05
43115;BME280;28727;50.068;14.452;2023-05-08T06:50:32;100175.66;;;15.34;47.75
43115;BME280;28727;50.068;14.452;2023-05-08T06:53:04;100176.53;;;15.49;46.32
43115;BME280;28727;50.068;14.452;2023-05-08T06:55:36;100169.31;;;15.35;45.45
43115;BME280;28727;50.068;14.452;2023-05-08T06:58:07;100187.25;;;15.41;47.11
43115;BME280;28727;50.068;14.452;2023-05-08T07:00:43;100176.59;;;15.64;45.30
43115;BME280;28727;50.068;14.452;2023-05-08T07:03:15;100189.91;;;15.64;43.40
43115;BME280;28727;50.068;14.452;2023-05-08T07:05:47;100188.72;;;15.66;44.18
43115;BME280;28727;50.068;14.452;2023-05-08T07:08:19;100172.53;;;15.68;43.43
43115;BME280;28727;50.068;14.452;2023-05-08T07:10:50;100180.28;;;15.77;42.68
43115;BME280;28727;50.068;14.452;2023-05-08T07:13:23;100174.88;;;16.00;43.16
43115;BME280;28727;50.068;14.452;2023-05-08T07:15:54;100174.78;;;16.08;41.51
43115;BME280;28727;50.068;14.452;2023-05-08T07:18:26;100185.34;;;16.16;41.33
43115;BME280;28727;50.068;14.452;2023-05-08T07:20:58;100188.19;;;15.71;41.23
43115;BME280;28727;50.068;14.452;2023-05-08T07:23:30;100186.28;;;15.56;42.29
43115;BME280;28727;50.068;14.452;2023-05-08T07:26:02;100186.97;;;15.59;42.24
43115;BME280;28727;50.068;14.452;2023-05-08T07:28:34;100190.28;;;15.75;41.48
43115;BME280;28727;50.068;14.452;2023-05-08T07:31:06;100190.91;;;15.63;41.41
43115;BME280;28727;50.068;14.452;2023-05-08T07:33:38;100186.03;;;15.43;41.37
43115;BME280;28727;50.068;14.452;2023-05-08T07:36:10;100180.16;;;15.33;41.92
43115;BME280;28727;50.068;14.452;2023-05-08T07:38:41;100187.47;;;15.08;42.51
43115;BME280;28727;50.068;14.452;2023-05-08T07:41:13;100188.69;;;15.06;43.14
43115;BME280;28727;50.068;14.452;2023-05-08T07:43:45;100190.38;;;15.22;42.73
43115;BME280;28727;50.068;14.452;2023-05-08T07:46:17;100189.00;;;15.26;42.10
43115;BME280;28727;50.068;14.452;2023-05-08T07:48:49;100174.91;;;15.25;42.00
43115;BME280;28727;50.068;14.452;2023-05-08T07:51:21;100181.66;;;15.50;41.58
43115;BME280;28727;50.068;14.452;2023-05-08T07:53:53;100187.63;;;15.61;40.72
43115;BME280;28727;50.068;14.452;2023-05-08T07:56:25;100185.03;;;15.44;41.54
43115;BME280;28727;50.068;14.452;2023-05-08T07:58:58;100176.31;;;15.73;40.23
43115;BME280;28727;50.068;14.452;2023-05-08T08:01:29;100183.75;;;15.63;40.14
43115;BME280;28727;50.068;14.452;2023-05-08T08:04:02;100188.84;;;15.27;40.63
43115;BME280;28727;50.068;14.452;2023-05-08T08:06:34;100187.84;;;14.83;41.46
43115;BME280;28727;50.068;14.452;2023-05-08T08:09:06;100195.63;;;14.53;42.97
43115;BME280;28727;50.068;14.452;2023-05-08T08:11:38;100189.44;;;14.92;43.03
43115;BME280;28727;50.068;14.452;2023-05-08T08:14:10;100181.53;;;15.52;42.62
43115;BME280;28727;50.068;14.452;2023-05-08T08:16:42;100187.09;;;15.94;40.65
43115;BME280;28727;50.068;14.452;2023-05-08T08:19:14;100172.75;;;16.10;42.01
43115;BME280;28727;50.068;14.452;2023-05-08T08:21:45;100171.91;;;16.54;39.51
43115;BME280;28727;50.068;14.452;2023-05-08T08:24:17;100182.00;;;16.44;40.16
43115;BME280;28727;50.068;14.452;2023-05-08T08:26:49;100178.50;;;16.58;39.82
43115;BME280;28727;50.068;14.452;2023-05-08T08:29:21;100180.16;;;16.59;39.49
43115;BME280;28727;50.068;14.452;2023-05-08T08:31:53;100165.53;;;16.69;38.59
43115;BME280;28727;50.068;14.452;2023-05-08T08:34:25;100163.34;;;16.94;38.65
43115;BME280;28727;50.068;14.452;2023-05-08T08:36:57;100171.34;;;16.94;40.02
43115;BME280;28727;50.068;14.452;2023-05-08T08:39:31;100176.06;;;16.92;38.49
43115;BME280;28727;50.068;14.452;2023-05-08T08:42:03;100173.94;;;16.88;38.16
43115;BME280;28727;50.068;14.452;2023-05-08T08:44:36;100181.03;;;16.95;38.37
43115;BME280;28727;50.068;14.452;2023-05-08T08:47:10;100181.22;;;16.94;36.80
43115;BME280;28727;50.068;14.452;2023-05-08T08:49:47;100186.72;;;16.27;38.21
43115;BME280;28727;50.068;14.452;2023-05-08T08:55:15;100165.69;;;16.17;38.93
43115;BME280;28727;50.068;14.452;2023-05-08T09:00:42;100161.97;;;16.48;38.70
43115;BME280;28727;50.068;14.452;2023-05-08T09:03:15;100160.38;;;16.68;37.55
43115;BME280;28727;50.068;14.452;2023-05-08T09:05:47;100165.94;;;16.88;37.22
43115;BME280;28727;50.068;14.452;2023-05-08T09:08:22;100155.69;;;16.70;37.36
43115;BME280;28727;50.068;14.452;2023-05-08T09:10:54;100162.31;;;16.74;37.96
43115;BME280;28727;50.068;14.452;2023-05-08T09:13:28;100154.09;;;16.90;38.35
43115;BME280;28727;50.068;14.452;2023-05-08T09:16:00;100155.22;;;17.24;36.60
43115;BME280;28727;50.068;14.452;2023-05-08T09:18:32;100158.00;;;17.37;37.00
43115;BME280;28727;50.068;14.452;2023-05-08T09:21:05;100166.94;;;17.72;36.00
43115;BME280;28727;50.068;14.452;2023-05-08T09:24:06;100160.47;;;17.38;35.62
43115;BME280;28727;50.068;14.452;2023-05-08T09:26:39;100164.41;;;17.42;36.48
43115;BME280;28727;50.068;14.452;2023-05-08T09:29:19;100170.53;;;17.15;35.73
43115;BME280;28727;50.068;14.452;2023-05-08T09:31:52;100153.50;;;16.95;36.58
43115;BME280;28727;50.068;14.452;2023-05-08T09:34:30;100166.22;;;17.14;35.53
43115;BME280;28727;50.068;14.452;2023-05-08T09:39:35;100152.47;;;17.17;35.94
43115;BME280;28727;50.068;14.452;2023-05-08T09:42:07;100151.56;;;16.67;36.57
43115;BME280;28727;50.068;14.452;2023-05-08T09:44:43;100140.16;;;16.59;36.67
43115;BME280;28727;50.068;14.452;2023-05-08T09:49:56;100167.03;;;17.14;36.04
43115;BME280;28727;50.068;14.452;2023-05-08T09:52:29;100147.66;;;17.06;35.99
43115;BME280;28727;50.068;14.452;2023-05-08T09:55:03;100149.63;;;17.18;35.84
43115;BME280;28727;50.068;14.452;2023-05-08T09:57:40;100133.97;;;17.15;36.03
43115;BME280;28727;50.068;14.452;2023-05-08T10:00:23;100131.94;;;17.17;37.02
43115;BME280;28727;50.068;14.452;2023-05-08T10:02:59;100141.41;;;17.69;34.23
43115;BME280;28727;50.068;14.452;2023-05-08T10:05:33;100141.09;;;17.85;34.97
43115;BME280;28727;50.068;14.452;2023-05-08T10:08:18;100143.13;;;17.77;34.28
43115;BME280;28727;50.068;14.452;2023-05-08T10:10:50;100134.03;;;17.43;35.39
43115;BME280;28727;50.068;14.452;2023-05-08T10:13:22;100135.16;;;17.34;35.92
43115;BME280;28727;50.068;14.452;2023-05-08T10:15:55;100138.13;;;17.46;35.24
43115;BME280;28727;50.068;14.452;2023-05-08T10:18:29;100126.91;;;17.78;35.87
43115;BME280;28727;50.068;14.452;2023-05-08T10:21:05;100135.28;;;18.10;34.95
43115;BME280;28727;50.068;14.452;2023-05-08T10:23:38;100130.84;;;18.23;35.30
43115;BME280;28727;50.068;14.452;2023-05-08T10:26:12;100137.47;;;18.40;32.98
43115;BME280;28727;50.068;14.452;2023-05-08T10:28:56;100130.69;;;18.31;33.44
43115;BME280;28727;50.068;14.452;2023-05-08T10:31:30;100117.50;;;18.30;33.85
43115;BME280;28727;50.068;14.452;2023-05-08T10:34:04;100126.69;;;18.21;33.24
43115;BME280;28727;50.068;14.452;2023-05-08T10:36:37;100129.47;;;17.65;33.89
43115;BME280;28727;50.068;14.452;2023-05-08T10:39:10;100122.41;;;17.57;34.01
43115;BME280;28727;50.068;14.452;2023-05-08T10:41:42;100116.50;;;17.62;34.63
43115;BME280;28727;50.068;14.452;2023-05-08T10:44:14;100114.03;;;17.95;33.91
43115;BME280;28727;50.068;14.452;2023-05-08T10:46:56;100107.25;;;17.99;33.85
43115;BME280;28727;50.068;14.452;2023-05-08T10:49:54;100113.81;;;18.44;33.39
43115;BME280;28727;50.068;14.452;2023-05-08T10:52:40;100111.81;;;18.05;33.27
43115;BME280;28727;50.068;14.452;2023-05-08T10:55:32;100107.56;;;18.17;33.93
43115;BME280;28727;50.068;14.452;2023-05-08T10:58:14;100107.81;;;18.29;33.17
43115;BME280;28727;50.068;14.452;2023-05-08T11:03:31;100106.97;;;18.89;32.33
43115;BME280;28727;50.068;14.452;2023-05-08T11:06:04;100116.03;;;18.27;32.55
43115;BME280;28727;50.068;14.452;2023-05-08T11:08:44;100090.31;;;18.20;32.80
43115;BME280;28727;50.068;14.452;2023-05-08T11:11:30;100084.94;;;18.20;33.43
43115;BME280;28727;50.068;14.452;2023-05-08T11:14:11;100088.91;;;18.37;34.05
43115;BME280;28727;50.068;14.452;2023-05-08T11:19:25;100086.97;;;18.65;32.73
43115;BME280;28727;50.068;14.452;2023-05-08T11:24:56;100084.94;;;18.26;32.82
43115;BME280;28727;50.068;14.452;2023-05-08T11:27:35;100079.22;;;18.29;33.24
43115;BME280;28727;50.068;14.452;2023-05-08T11:38:32;100082.41;;;18.05;34.01
43115;BME280;28727;50.068;14.452;2023-05-08T11:46:47;100058.28;;;18.53;33.87
43115;BME280;28727;50.068;14.452;2023-05-08T11:49:23;100059.34;;;18.58;33.76
43115;BME280;28727;50.068;14.452;2023-05-08T11:52:00;100057.09;;;18.62;33.43
43115;BME280;28727;50.068;14.452;2023-05-08T11:54:34;100054.56;;;18.47;33.06
43115;BME280;28727;50.068;14.452;2023-05-08T11:57:06;100052.34;;;18.57;32.82
43115;BME280;28727;50.068;14.452;2023-05-08T11:59:40;100041.25;;;18.73;33.70
43115;BME280;28727;50.068;14.452;2023-05-08T12:02:12;100054.03;;;18.98;32.53
43115;BME280;28727;50.068;14.452;2023-05-08T12:04:47;100046.00;;;18.78;32.05
43115;BME280;28727;50.068;14.452;2023-05-08T12:07:19;100043.56;;;18.96;31.56
43115;BME280;28727;50.068;14.452;2023-05-08T12:09:52;100049.28;;;18.73;32.00
43115;BME280;28727;50.068;14.452;2023-05-08T12:12:37;100040.53;;;18.25;32.58
43115;BME280;28727;50.068;14.452;2023-05-08T12:15:13;100039.28;;;18.28;33.25
43115;BME280;28727;50.068;14.452;2023-05-08T12:17:59;100053.69;;;18.33;32.40
43115;BME280;28727;50.068;14.452;2023-05-08T12:20:31;100042.59;;;18.30;32.62
43115;BME280;28727;50.068;14.452;2023-05-08T12:23:04;100035.09;;;18.66;33.04
43115;BME280;28727;50.068;14.452;2023-05-08T12:25:38;100031.38;;;18.87;31.84
43115;BME280;28727;50.068;14.452;2023-05-08T12:28:13;100030.56;;;18.93;32.24
43115;BME280;28727;50.068;14.452;2023-05-08T12:30:46;100030.38;;;19.08;32.19
43115;BME280;28727;50.068;14.452;2023-05-08T12:33:19;100026.63;;;19.29;31.73
43115;BME280;28727;50.068;14.452;2023-05-08T12:35:51;100024.38;;;19.26;31.51
43115;BME280;28727;50.068;14.452;2023-05-08T12:38:27;100029.72;;;19.26;31.59
43115;BME280;28727;50.068;14.452;2023-05-08T12:41:01;100020.66;;;19.20;31.53
43115;BME280;28727;50.068;14.452;2023-05-08T12:43:35;100042.28;;;19.25;31.95
43115;BME280;28727;50.068;14.452;2023-05-08T12:46:10;100022.72;;;19.05;31.60
43115;BME280;28727;50.068;14.452;2023-05-08T12:48:42;100016.53;;;19.04;32.48
43115;BME280;28727;50.068;14.452;2023-05-08T12:51:13;100017.56;;;19.16;31.68
43115;BME280;28727;50.068;14.452;2023-05-08T12:53:46;100024.38;;;18.99;32.27
43115;BME280;28727;50.068;14.452;2023-05-08T12:56:20;100016.53;;;18.91;31.42
43115;BME280;28727;50.068;14.452;2023-05-08T12:58:58;100017.16;;;18.93;31.59
43115;BME280;28727;50.068;14.452;2023-05-08T13:01:30;100018.41;;;18.77;32.34
43115;BME280;28727;50.068;14.452;2023-05-08T13:04:06;100022.09;;;18.57;32.47
43115;BME280;28727;50.068;14.452;2023-05-08T13:06:38;100017.91;;;18.41;34.74
43115;BME280;28727;50.068;14.452;2023-05-08T13:09:17;100011.75;;;18.47;34.60
43115;BME280;28727;50.068;14.452;2023-05-08T13:11:49;100006.88;;;18.64;33.56
43115;BME280;28727;50.068;14.452;2023-05-08T13:14:20;100003.78;;;18.73;33.50
43115;BME280;28727;50.068;14.452;2023-05-08T13:16:52;99997.22;;;18.96;33.44
43115;BME280;28727;50.068;14.452;2023-05-08T13:19:24;100006.66;;;19.18;33.89
43115;BME280;28727;50.068;14.452;2023-05-08T13:21:57;99994.09;;;19.05;32.61
43115;BME280;28727;50.068;14.452;2023-05-08T13:24:29;99988.09;;;19.23;33.47
43115;BME280;28727;50.068;14.452;2023-05-08T13:27:01;99996.31;;;19.35;33.42
43115;BME280;28727;50.068;14.452;2023-05-08T13:29:33;99988.25;;;19.41;33.00
43115;BME280;28727;50.068;14.452;2023-05-08T13:32:05;99975.88;;;19.53;32.23
43115;BME280;28727;50.068;14.452;2023-05-08T13:34:37;99979.38;;;19.60;32.23
43115;BME280;28727;50.068;14.452;2023-05-08T13:37:20;99974.19;;;19.66;31.91
43115;BME280;28727;50.068;14.452;2023-05-08T13:39:52;99983.28;;;19.65;32.27
43115;BME280;28727;50.068;14.452;2023-05-08T13:42:24;99976.25;;;19.63;32.34
43115;BME280;28727;50.068;14.452;2023-05-08T13:44:56;99972.03;;;19.87;32.52
43115;BME280;28727;50.068;14.452;2023-05-08T13:47:27;99967.63;;;19.99;32.08
43115;BME280;28727;50.068;14.452;2023-05-08T13:49:59;99970.34;;;19.93;31.22
43115;BME280;28727;50.068;14.452;2023-05-08T13:52:31;99971.00;;;19.88;31.09
43115;BME280;28727;50.068;14.452;2023-05-08T13:55:07;99980.19;;;19.61;30.90
43115;BME280;28727;50.068;14.452;2023-05-08T13:57:40;99979.78;;;19.44;32.14
43115;BME280;28727;50.068;14.452;2023-05-08T14:00:12;99966.00;;;19.41;31.45
43115;BME280;28727;50.068;14.452;2023-05-08T14:02:44;99964.91;;;19.68;31.70
43115;BME280;28727;50.068;14.452;2023-05-08T14:05:16;99973.72;;;19.82;30.70
43115;BME280;28727;50.068;14.452;2023-05-08T14:07:48;99974.44;;;19.51;30.93
43115;BME280;28727;50.068;14.452;2023-05-08T14:10:20;99960.84;;;19.52;31.34
43115;BME280;28727;50.068;14.452;2023-05-08T14:12:52;99965.97;;;19.60;31.24
43115;BME280;28727;50.068;14.452;2023-05-08T14:15:27;99969.50;;;19.54;30.24
43115;BME280;28727;50.068;14.452;2023-05-08T14:18:07;99976.16;;;19.26;30.89
43115;BME280;28727;50.068;14.452;2023-05-08T14:20:39;99965.00;;;19.22;30.95
43115;BME280;28727;50.068;14.452;2023-05-08T14:23:11;99963.34;;;19.21;31.44